createdAt,value
2023-01-26T00:00:55.710Z,2
2023-01-26T00:02:02.818Z,1.9
2023-01-26T00:03:09.826Z,2
2023-01-26T00:04:17.015Z,1.7
2023-01-26T00:05:24.135Z,1.8
2023-01-26T00:06:31.482Z,1.8
2023-01-26T00:07:38.957Z,1.5
2023-01-26T00:08:46.226Z,1.5
2023-01-26T00:09:56.618Z,1.7
2023-01-26T00:11:03.798Z,1.7
2023-01-26T00:12:11.305Z,1.7
2023-01-26T00:13:18.490Z,1.7
2023-01-26T00:14:25.607Z,1.7
2023-01-26T00:15:32.738Z,1.7
2023-01-26T00:16:40.010Z,1.7
2023-01-26T00:17:46.986Z,1.7
2023-01-26T00:18:54.064Z,1.7
2023-01-26T00:20:01.342Z,1.6
2023-01-26T00:21:08.438Z,1.7
2023-01-26T00:22:15.710Z,1.8
2023-01-26T00:23:22.754Z,1.9
2023-01-26T00:24:29.814Z,1.8
2023-01-26T00:25:36.870Z,1.9
2023-01-26T00:26:44.067Z,1.9
2023-01-26T00:27:51.214Z,2
2023-01-26T00:28:58.351Z,1.9
2023-01-26T00:30:05.414Z,1.8
2023-01-26T00:31:13.157Z,1.6
2023-01-26T00:32:20.221Z,1.4
2023-01-26T00:33:27.397Z,1.4
2023-01-26T00:34:34.466Z,1.6
2023-01-26T00:35:41.482Z,1.7
2023-01-26T00:36:48.670Z,1.7
2023-01-26T00:37:55.845Z,1.6
2023-01-26T00:39:02.983Z,1.6
2023-01-26T00:40:10.445Z,1.3
2023-01-26T00:41:17.429Z,1.3
2023-01-26T00:42:29.528Z,1.2
2023-01-26T00:43:36.649Z,1.2
2023-01-26T00:44:43.741Z,1.2
2023-01-26T00:45:50.902Z,1.2
2023-01-26T00:46:57.967Z,1.3
2023-01-26T00:48:05.143Z,1.5
2023-01-26T00:49:12.243Z,1.6
2023-01-26T00:50:19.471Z,1.6
2023-01-26T00:51:26.421Z,1.5
2023-01-26T00:52:33.501Z,1.4
2023-01-26T00:53:40.858Z,1.3
2023-01-26T00:54:47.841Z,1.5
2023-01-26T00:55:54.970Z,1.6
2023-01-26T00:57:02.256Z,1.7
2023-01-26T00:58:09.254Z,1.8
2023-01-26T00:59:16.365Z,1.8
2023-01-26T01:00:23.519Z,1.9
2023-01-26T01:01:30.694Z,2
2023-01-26T01:02:37.952Z,2.1
2023-01-26T01:03:45.437Z,2.1
2023-01-26T01:04:52.519Z,2.2
2023-01-26T01:05:59.630Z,2.2
2023-01-26T01:07:06.726Z,2.2
2023-01-26T01:08:13.949Z,2.2
2023-01-26T01:09:21.130Z,2.1
2023-01-26T01:10:28.313Z,2.2
2023-01-26T01:11:35.237Z,2.2
2023-01-26T01:12:42.433Z,2
2023-01-26T01:13:49.556Z,1.9
2023-01-26T01:14:56.688Z,1.9
2023-01-26T01:16:04.237Z,2
2023-01-26T01:17:11.566Z,2
2023-01-26T01:18:18.591Z,2.1
2023-01-26T01:19:25.759Z,2.2
2023-01-26T01:20:32.792Z,2.2
2023-01-26T01:21:39.984Z,2.3
2023-01-26T01:22:47.338Z,2.3
2023-01-26T01:23:54.278Z,2.2
2023-01-26T01:25:01.379Z,2.2
2023-01-26T01:26:08.506Z,2.3
2023-01-26T01:27:15.753Z,2.3
2023-01-26T01:28:22.954Z,2.3
2023-01-26T01:29:29.967Z,2.3
2023-01-26T01:30:37.103Z,2.3
2023-01-26T01:31:44.227Z,2.3
2023-01-26T01:32:51.335Z,2.3
2023-01-26T01:33:58.523Z,2.1
2023-01-26T01:35:05.681Z,1.8
2023-01-26T01:36:12.771Z,1.9
2023-01-26T01:37:19.839Z,1.9
2023-01-26T01:38:27.035Z,1.9
2023-01-26T01:39:34.150Z,2
2023-01-26T01:40:41.289Z,2.1
2023-01-26T01:41:48.614Z,2.3
2023-01-26T01:42:55.666Z,2.3
2023-01-26T01:44:02.803Z,2.3
2023-01-26T01:45:14.957Z,2.3
2023-01-26T01:46:27.352Z,2.3
2023-01-26T01:47:34.318Z,2.4
2023-01-26T01:48:41.401Z,2.4
2023-01-26T01:49:51.557Z,2.4
2023-01-26T01:50:58.725Z,2.4
2023-01-26T01:52:08.896Z,2.4
2023-01-26T01:53:19.103Z,2.4
2023-01-26T01:54:28.787Z,2.4
2023-01-26T01:55:35.855Z,2.5
2023-01-26T01:56:43.038Z,2.5
2023-01-26T01:57:50.196Z,2.4
2023-01-26T01:58:57.363Z,2.5
2023-01-26T02:00:04.474Z,2.5
2023-01-26T02:01:12.132Z,2.4
2023-01-26T02:02:19.260Z,2.4
2023-01-26T02:03:26.334Z,2.4
2023-01-26T02:04:33.380Z,2.4
2023-01-26T02:05:40.588Z,2.1
2023-01-26T02:06:55.305Z,2.2
2023-01-26T02:08:02.462Z,2.3
2023-01-26T02:09:09.620Z,2.4
2023-01-26T02:10:16.762Z,2.4
2023-01-26T02:11:23.797Z,2.3
2023-01-26T02:12:33.940Z,2.2
2023-01-26T02:13:41.052Z,2.3
2023-01-26T02:14:48.204Z,2.3
2023-01-26T02:15:55.333Z,2.3
2023-01-26T02:17:02.619Z,2.4
2023-01-26T02:18:09.571Z,2.4
2023-01-26T02:19:16.777Z,2.4
2023-01-26T02:20:29.041Z,2.3
2023-01-26T02:21:36.017Z,2.4
2023-01-26T02:22:43.138Z,2.4
2023-01-26T02:23:55.444Z,2.4
2023-01-26T02:25:05.558Z,2.4
2023-01-26T02:26:18.437Z,2.5
2023-01-26T02:27:27.927Z,2.4
2023-01-26T02:28:34.970Z,2.4
2023-01-26T02:29:42.096Z,2.3
2023-01-26T02:30:49.301Z,2.3
2023-01-26T02:31:56.510Z,2.3
2023-01-26T02:33:03.540Z,2.4
2023-01-26T02:34:10.942Z,2.4
2023-01-26T02:35:18.282Z,2.4
2023-01-26T02:36:25.505Z,2.4
2023-01-26T02:37:32.609Z,2.4
2023-01-26T02:38:39.651Z,2.3
2023-01-26T02:39:46.824Z,2.3
2023-01-26T02:41:00.045Z,2.4
2023-01-26T02:42:13.294Z,2.4
2023-01-26T02:43:25.481Z,2.4
2023-01-26T02:44:32.624Z,2.4
2023-01-26T02:45:39.633Z,2.5
2023-01-26T02:46:46.826Z,2.4
2023-01-26T02:47:53.956Z,2.4
2023-01-26T02:49:01.121Z,2.4
2023-01-26T02:50:13.598Z,2.5
2023-01-26T02:51:20.518Z,2.4
2023-01-26T02:52:27.570Z,2.2
2023-01-26T02:53:34.554Z,2
2023-01-26T02:54:41.693Z,1.9
2023-01-26T02:55:53.956Z,2.2
2023-01-26T02:57:01.192Z,2.3
2023-01-26T02:58:08.203Z,2.3
2023-01-26T02:59:15.341Z,2.4
2023-01-26T03:00:22.616Z,2.4
2023-01-26T03:01:32.308Z,2.4
2023-01-26T03:02:36.712Z,2.4
2023-01-26T03:03:43.841Z,2.4
2023-01-26T03:04:50.897Z,2.3
2023-01-26T03:05:58.237Z,2.3
2023-01-26T03:07:05.327Z,2.4
2023-01-26T03:08:12.274Z,2.4
2023-01-26T03:09:19.423Z,2.4
2023-01-26T03:10:26.576Z,2.4
2023-01-26T03:11:33.695Z,2.4
2023-01-26T03:12:45.833Z,2.4
2023-01-26T03:13:53.028Z,2.4
2023-01-26T03:15:00.252Z,2.4
2023-01-26T03:16:12.951Z,2.5
2023-01-26T03:17:20.109Z,2.5
2023-01-26T03:18:27.258Z,2.5
2023-01-26T03:19:39.294Z,2.5
2023-01-26T03:20:51.502Z,2.5
2023-01-26T03:22:03.736Z,2.4
2023-01-26T03:23:15.976Z,2.4
2023-01-26T03:24:28.368Z,2.4
2023-01-26T03:25:40.801Z,2.4
2023-01-26T03:26:53.150Z,2.3
2023-01-26T03:28:05.332Z,2.3
2023-01-26T03:29:12.420Z,2.3
2023-01-26T03:30:19.623Z,2.4
2023-01-26T03:31:26.891Z,2.4
2023-01-26T03:32:33.792Z,2.4
2023-01-26T03:33:40.861Z,2.4
2023-01-26T03:34:48.032Z,2.4
2023-01-26T03:35:55.141Z,2.4
2023-01-26T03:37:02.366Z,2.4
2023-01-26T03:38:09.421Z,2.4
2023-01-26T03:39:16.551Z,2.4
2023-01-26T03:40:28.827Z,2.4
2023-01-26T03:41:40.876Z,2.4
2023-01-26T03:42:53.136Z,2.4
2023-01-26T03:44:05.369Z,2.4
2023-01-26T03:45:17.502Z,2.4
2023-01-26T03:46:29.857Z,2.4
2023-01-26T03:47:42.370Z,2.4
2023-01-26T03:48:54.673Z,2.4
2023-01-26T03:50:06.874Z,2.4
2023-01-26T03:51:19.060Z,2.3
2023-01-26T03:52:31.331Z,2.3
2023-01-26T03:53:43.433Z,2.4
2023-01-26T03:54:55.622Z,2.3
2023-01-26T03:56:07.845Z,2.4
2023-01-26T03:57:17.536Z,2.3
2023-01-26T03:58:24.676Z,2.3
2023-01-26T03:59:31.801Z,2.3
2023-01-26T04:00:42.063Z,2.4
2023-01-26T04:01:49.380Z,2.4
2023-01-26T04:03:01.281Z,2.4
2023-01-26T04:04:13.492Z,2.4
2023-01-26T04:05:25.784Z,2.4
2023-01-26T04:06:37.957Z,2.4
2023-01-26T04:07:50.151Z,2.3
2023-01-26T04:09:07.400Z,2.4
2023-01-26T04:10:22.150Z,2.4
2023-01-26T04:11:33.740Z,2.4
2023-01-26T04:12:44.148Z,2.4
2023-01-26T04:13:56.280Z,2.4
2023-01-26T04:15:08.473Z,2.4
2023-01-26T04:16:20.851Z,2.4
2023-01-26T04:17:33.152Z,2.3
2023-01-26T04:18:45.192Z,2.4
2023-01-26T04:19:57.412Z,2.4
2023-01-26T04:21:10.101Z,2.4
2023-01-26T04:22:22.336Z,2.4
2023-01-26T04:23:29.532Z,2.4
2023-01-26T04:24:36.530Z,2.4
2023-01-26T04:25:43.720Z,2.4
2023-01-26T04:26:50.961Z,2.4
2023-01-26T04:27:57.951Z,2.4
2023-01-26T04:29:05.016Z,2.3
2023-01-26T04:30:14.802Z,2.2
2023-01-26T04:31:21.964Z,2.3
2023-01-26T04:32:29.109Z,2.3
2023-01-26T04:33:36.172Z,2.3
2023-01-26T04:34:43.504Z,2.3
2023-01-26T04:35:50.482Z,2.4
2023-01-26T04:36:57.583Z,2.4
2023-01-26T04:38:04.703Z,2.4
2023-01-26T04:39:11.887Z,2.4
2023-01-26T04:40:18.956Z,2.4
2023-01-26T04:41:26.293Z,2.4
2023-01-26T04:42:33.287Z,2.4
2023-01-26T04:43:40.360Z,2.4
2023-01-26T04:44:47.493Z,2.4
2023-01-26T04:45:54.646Z,2.4
2023-01-26T04:47:04.299Z,2.4
2023-01-26T04:48:11.406Z,2.4
2023-01-26T04:49:18.706Z,2.5
2023-01-26T04:50:25.679Z,2.5
2023-01-26T04:51:32.929Z,2.5
2023-01-26T04:52:39.947Z,2.5
2023-01-26T04:53:47.028Z,2.5
2023-01-26T04:54:54.243Z,2.5
2023-01-26T04:56:01.411Z,2.5
2023-01-26T04:57:08.968Z,2.5
2023-01-26T04:58:16.158Z,2.4
2023-01-26T04:59:23.263Z,2.4
2023-01-26T05:00:30.414Z,2.5
2023-01-26T05:01:37.465Z,2.5
2023-01-26T05:02:44.708Z,2.5
2023-01-26T05:03:51.729Z,2.5
2023-01-26T05:04:58.867Z,2.5
2023-01-26T05:06:06.096Z,2.5
2023-01-26T05:07:13.082Z,2.5
2023-01-26T05:08:20.448Z,2.5
2023-01-26T05:09:27.492Z,2.5
2023-01-26T05:10:34.532Z,2.5
2023-01-26T05:11:41.607Z,2.5
2023-01-26T05:12:48.772Z,2.5
2023-01-26T05:13:56.009Z,2.5
2023-01-26T05:15:03.157Z,2.4
2023-01-26T05:16:10.783Z,2.3
2023-01-26T05:17:17.917Z,2.4
2023-01-26T05:18:25.062Z,2.4
2023-01-26T05:19:32.151Z,2.4
2023-01-26T05:20:39.299Z,2.4
2023-01-26T05:21:46.434Z,2.4
2023-01-26T05:22:53.615Z,2.4
2023-01-26T05:24:00.792Z,2.4
2023-01-26T05:25:07.828Z,2.4
2023-01-26T05:26:14.940Z,2.4
2023-01-26T05:27:22.080Z,2.5
2023-01-26T05:28:29.253Z,2.4
2023-01-26T05:29:36.400Z,2.4
2023-01-26T05:30:43.403Z,2.4
2023-01-26T05:31:50.609Z,2.4
2023-01-26T05:32:57.701Z,2.4
2023-01-26T05:34:07.867Z,2.5
2023-01-26T05:35:15.015Z,2.4
2023-01-26T05:36:22.172Z,2.4
2023-01-26T05:37:29.344Z,2.4
2023-01-26T05:38:36.405Z,2.4
2023-01-26T05:39:43.554Z,2.4
2023-01-26T05:40:50.676Z,2.4
2023-01-26T05:41:57.943Z,2.3
2023-01-26T05:43:05.066Z,2.3
2023-01-26T05:44:12.148Z,2.3
2023-01-26T05:45:19.334Z,2.4
2023-01-26T05:46:26.479Z,2.4
2023-01-26T05:47:33.551Z,2.4
2023-01-26T05:48:40.731Z,2.4
2023-01-26T05:49:47.723Z,2.4
2023-01-26T05:50:54.843Z,2.4
2023-01-26T05:52:02.017Z,2.4
2023-01-26T05:53:09.087Z,2.4
2023-01-26T05:54:16.253Z,2.4
2023-01-26T05:55:23.486Z,2.4
2023-01-26T05:56:30.540Z,2.5
2023-01-26T05:57:37.468Z,2.5
2023-01-26T05:58:44.659Z,2.5
2023-01-26T05:59:51.876Z,2.4
2023-01-26T06:00:58.955Z,2.4
2023-01-26T06:02:08.673Z,2.4
2023-01-26T06:03:15.956Z,2.4
2023-01-26T06:04:22.969Z,2.4
2023-01-26T06:05:30.035Z,2.4
2023-01-26T06:06:37.161Z,2.4
2023-01-26T06:07:44.248Z,2.4
2023-01-26T06:08:51.457Z,2.4
2023-01-26T06:09:58.472Z,2.4
2023-01-26T06:11:05.715Z,2.4
2023-01-26T06:12:12.920Z,2.4
2023-01-26T06:13:19.866Z,2.4
2023-01-26T06:14:27.071Z,2.4
2023-01-26T06:15:34.177Z,2.4
2023-01-26T06:16:41.341Z,2.4
2023-01-26T06:17:48.386Z,2.4
2023-01-26T06:18:55.563Z,2.4
2023-01-26T06:20:02.666Z,2.4
2023-01-26T06:21:09.866Z,2.4
2023-01-26T06:22:17.038Z,2.4
2023-01-26T06:23:24.126Z,2.4
2023-01-26T06:24:31.299Z,2.4
2023-01-26T06:25:38.343Z,2.4
2023-01-26T06:26:45.622Z,2.4
2023-01-26T06:27:52.745Z,2.4
2023-01-26T06:28:59.771Z,2.4
2023-01-26T06:30:06.951Z,2.4
2023-01-26T06:31:14.675Z,2.4
2023-01-26T06:32:21.669Z,2.4
2023-01-26T06:33:28.913Z,2.3
2023-01-26T06:34:36.435Z,2.3
2023-01-26T06:35:43.687Z,2.3
2023-01-26T06:36:50.682Z,2.3
2023-01-26T06:37:57.788Z,2.3
2023-01-26T06:39:04.974Z,2.3
2023-01-26T06:40:12.340Z,2.4
2023-01-26T06:41:19.258Z,2.4
2023-01-26T06:42:26.564Z,2.4
2023-01-26T06:43:33.922Z,2.4
2023-01-26T06:44:41.042Z,2.4
2023-01-26T06:45:48.233Z,2.4
2023-01-26T06:46:55.337Z,2.4
2023-01-26T06:48:02.582Z,2.4
2023-01-26T06:49:09.750Z,2.4
2023-01-26T06:50:16.726Z,2.4
2023-01-26T06:51:23.877Z,2.4
2023-01-26T06:52:40.357Z,2.4
2023-01-26T06:53:46.177Z,2.4
2023-01-26T06:54:56.418Z,2.4
2023-01-26T06:56:03.463Z,2.4
2023-01-26T06:57:10.631Z,2.4
2023-01-26T06:58:17.843Z,2.5
2023-01-26T06:59:24.968Z,2.4
2023-01-26T07:00:32.090Z,2.4
2023-01-26T07:01:39.194Z,2.5
2023-01-26T07:02:49.282Z,2.5
2023-01-26T07:03:56.459Z,2.5
2023-01-26T07:05:03.551Z,2.5
2023-01-26T07:06:10.726Z,2.4
2023-01-26T07:07:17.841Z,2.4
2023-01-26T07:08:25.046Z,2.4
2023-01-26T07:09:32.239Z,2.4
2023-01-26T07:10:39.153Z,2.4
2023-01-26T07:11:46.336Z,2.5
2023-01-26T07:12:53.455Z,2.5
2023-01-26T07:14:00.609Z,2.4
2023-01-26T07:15:07.890Z,2.4
2023-01-26T07:16:15.041Z,2.4
2023-01-26T07:17:22.057Z,2.4
2023-01-26T07:18:29.262Z,2.5
2023-01-26T07:19:36.257Z,2.4
2023-01-26T07:20:43.370Z,2.4
2023-01-26T07:21:50.623Z,2.4
2023-01-26T07:22:57.658Z,2.4
2023-01-26T07:24:04.879Z,2.4
2023-01-26T07:25:11.949Z,2.4
2023-01-26T07:26:19.091Z,2.5
2023-01-26T07:27:26.246Z,2.4
2023-01-26T07:28:33.450Z,2.4
2023-01-26T07:29:40.468Z,2.4
2023-01-26T07:30:47.663Z,2.4
2023-01-26T07:31:54.801Z,2.4
2023-01-26T07:33:01.891Z,2.4
2023-01-26T07:34:14.603Z,2.5
2023-01-26T07:35:21.889Z,2.5
2023-01-26T07:36:28.930Z,2.4
2023-01-26T07:37:35.900Z,2.3
2023-01-26T07:38:43.030Z,2.2
2023-01-26T07:39:50.252Z,2.3
2023-01-26T07:40:57.333Z,2.3
2023-01-26T07:42:04.471Z,2.4
2023-01-26T07:43:11.668Z,2.4
2023-01-26T07:44:18.834Z,2.3
2023-01-26T07:45:25.836Z,2.4
2023-01-26T07:46:32.918Z,2.3
2023-01-26T07:47:40.026Z,2.3
2023-01-26T07:48:47.223Z,2.3
2023-01-26T07:49:54.444Z,2.4
2023-01-26T07:51:01.469Z,2.3
2023-01-26T07:52:08.620Z,2.3
2023-01-26T07:53:15.723Z,2.3
2023-01-26T07:54:23.290Z,2.4
2023-01-26T07:55:30.613Z,2.3
2023-01-26T07:56:37.554Z,2.1
2023-01-26T07:57:44.691Z,2.1
2023-01-26T07:58:53.112Z,2.2
2023-01-26T08:00:00.705Z,2.3
2023-01-26T08:01:08.277Z,2.3
2023-01-26T08:02:15.665Z,2.3
2023-01-26T08:03:24.847Z,2.4
2023-01-26T08:04:33.293Z,2.4
2023-01-26T08:05:41.586Z,2.4
2023-01-26T08:06:50.533Z,2.5
2023-01-26T08:07:57.495Z,2.4
2023-01-26T08:09:05.112Z,2.5
2023-01-26T08:10:12.600Z,2.4
2023-01-26T08:11:29.388Z,2.4
2023-01-26T08:12:41.231Z,2.5
2023-01-26T08:13:51.953Z,2.5
2023-01-26T08:14:59.053Z,2.5
2023-01-26T08:16:06.230Z,2.6
2023-01-26T08:17:14.682Z,2.6
2023-01-26T08:18:23.808Z,2.6
2023-01-26T08:19:31.531Z,2.7
2023-01-26T08:20:38.776Z,2.7
2023-01-26T08:21:46.233Z,2.7
2023-01-26T08:22:56.080Z,2.7
2023-01-26T08:24:05.161Z,2.7
2023-01-26T08:25:13.445Z,2.7
2023-01-26T08:26:20.642Z,2.7
2023-01-26T08:27:27.833Z,2.7
2023-01-26T08:28:34.978Z,2.7
2023-01-26T08:29:41.823Z,2.7
2023-01-26T08:30:49.909Z,2.7
2023-01-26T08:32:03.663Z,2.6
2023-01-26T08:33:13.011Z,2.6
2023-01-26T08:34:20.153Z,2.7
2023-01-26T08:35:29.347Z,2.7
2023-01-26T08:36:37.689Z,2.7
2023-01-26T08:37:45.141Z,2.7
2023-01-26T08:38:52.539Z,2.7
2023-01-26T08:40:01.629Z,2.7
2023-01-26T08:41:11.440Z,2.7
2023-01-26T08:42:19.907Z,2.7
2023-01-26T08:43:27.137Z,2.7
2023-01-26T08:44:34.529Z,2.7
2023-01-26T08:45:42.916Z,2.7
2023-01-26T08:46:51.144Z,2.8
2023-01-26T08:47:58.553Z,2.8
2023-01-26T08:49:07.342Z,2.8
2023-01-26T08:50:15.477Z,2.8
2023-01-26T08:51:23.869Z,2.8
2023-01-26T08:52:31.266Z,2.7
2023-01-26T08:53:39.595Z,2.8
2023-01-26T08:54:47.823Z,2.8
2023-01-26T08:55:54.819Z,2.9
2023-01-26T08:57:02.902Z,2.9
2023-01-26T08:58:11.148Z,2.9
2023-01-26T08:59:20.303Z,2.9
2023-01-26T09:00:27.622Z,2.9
2023-01-26T09:01:36.051Z,2.9
2023-01-26T09:02:43.892Z,2.9
2023-01-26T09:03:51.605Z,2.9
2023-01-26T09:04:58.465Z,2.9
2023-01-26T09:06:05.815Z,3
2023-01-26T09:07:14.984Z,2.9
2023-01-26T09:08:22.668Z,2.9
2023-01-26T09:09:30.451Z,2.9
2023-01-26T09:10:41.913Z,3
2023-01-26T09:11:50.455Z,2.9
2023-01-26T09:13:01.647Z,3
2023-01-26T09:14:09.228Z,2.9
2023-01-26T09:15:16.335Z,3
2023-01-26T09:16:23.528Z,3.1
2023-01-26T09:17:30.643Z,3.1
2023-01-26T09:18:37.881Z,3
2023-01-26T09:19:45.169Z,3
2023-01-26T09:20:53.213Z,3.1
2023-01-26T09:22:01.302Z,3
2023-01-26T09:23:10.589Z,3.1
2023-01-26T09:24:18.417Z,3
2023-01-26T09:25:26.672Z,3
2023-01-26T09:26:34.249Z,3
2023-01-26T09:27:42.417Z,3
2023-01-26T09:28:49.761Z,3.1
2023-01-26T09:29:57.559Z,3.1
2023-01-26T09:31:04.471Z,3.1
2023-01-26T09:32:11.545Z,3.1
2023-01-26T09:33:18.770Z,3
2023-01-26T09:34:25.775Z,2.9
2023-01-26T09:35:34.942Z,3
2023-01-26T09:36:42.061Z,3
2023-01-26T09:37:49.465Z,3.1
2023-01-26T09:38:57.787Z,3.1
2023-01-26T09:40:05.747Z,2.9
2023-01-26T09:41:13.633Z,3
2023-01-26T09:42:26.281Z,3.1
2023-01-26T09:43:37.057Z,3.2
2023-01-26T09:44:52.377Z,3.1
2023-01-26T09:46:10.154Z,3.2
2023-01-26T09:47:26.269Z,3.1
2023-01-26T09:48:44.454Z,3.2
2023-01-26T09:49:58.277Z,3.2
2023-01-26T09:51:09.418Z,3.2
2023-01-26T09:52:19.471Z,3.3
2023-01-26T09:53:31.834Z,3.4
2023-01-26T09:54:44.724Z,3.4
2023-01-26T09:55:54.857Z,3.3
2023-01-26T09:57:01.980Z,3.4
2023-01-26T09:58:14.221Z,3.4
2023-01-26T09:59:24.719Z,3.4
2023-01-26T10:00:40.763Z,3.4
2023-01-26T10:01:50.969Z,3
2023-01-26T10:03:04.190Z,3.1
2023-01-26T10:04:17.681Z,3.2
2023-01-26T10:05:36.941Z,3.3
2023-01-26T10:06:49.457Z,3.3
2023-01-26T10:07:57.030Z,3.4
2023-01-26T10:09:04.511Z,3.4
2023-01-26T10:10:11.869Z,3.4
2023-01-26T10:11:18.813Z,3.4
2023-01-26T10:12:30.186Z,3.5
2023-01-26T10:13:38.618Z,3.3
2023-01-26T10:14:45.829Z,3.2
2023-01-26T10:15:55.570Z,3.1
2023-01-26T10:17:05.885Z,3.3
2023-01-26T10:18:19.788Z,3.3
2023-01-26T10:19:31.004Z,3.4
2023-01-26T10:20:38.397Z,3.5
2023-01-26T10:21:48.828Z,3.5
2023-01-26T10:22:56.940Z,3.6
2023-01-26T10:24:09.424Z,3.6
2023-01-26T10:25:16.566Z,3.6
2023-01-26T10:26:31.353Z,3.6
2023-01-26T10:27:39.534Z,3.6
2023-01-26T10:28:47.361Z,3.7
2023-01-26T10:29:54.619Z,3.7
2023-01-26T10:31:02.460Z,3.7
2023-01-26T10:32:09.388Z,3.7
2023-01-26T10:33:19.935Z,3.7
2023-01-26T10:34:27.608Z,3.7
2023-01-26T10:35:36.797Z,3.7
2023-01-26T10:36:44.284Z,3.8
2023-01-26T10:37:52.481Z,3.8
2023-01-26T10:39:00.873Z,3.8
2023-01-26T10:40:13.235Z,3.8
2023-01-26T10:41:20.825Z,3.8
2023-01-26T10:42:32.432Z,3.8
2023-01-26T10:43:40.121Z,3.8
2023-01-26T10:45:00.355Z,3.8
2023-01-26T10:46:11.693Z,3.7
2023-01-26T10:47:27.629Z,3.8
2023-01-26T10:48:34.916Z,3.8
2023-01-26T10:49:43.071Z,3.8
2023-01-26T10:50:51.146Z,3.8
2023-01-26T10:51:58.706Z,3.8
2023-01-26T10:53:08.787Z,3.7
2023-01-26T10:54:20.362Z,3.8
2023-01-26T10:55:28.540Z,3.6
2023-01-26T10:56:36.634Z,3.6
2023-01-26T10:57:46.927Z,3.5
2023-01-26T10:58:55.214Z,3.4
2023-01-26T11:00:02.456Z,3.2
2023-01-26T11:01:16.510Z,3.4
2023-01-26T11:02:24.460Z,3.5
2023-01-26T11:03:31.487Z,3.4
2023-01-26T11:04:38.729Z,3.5
2023-01-26T11:05:46.697Z,3.6
2023-01-26T11:06:53.844Z,3.7
2023-01-26T11:08:01.904Z,3.7
2023-01-26T11:09:10.129Z,3.7
2023-01-26T11:10:19.021Z,3.8
2023-01-26T11:11:31.545Z,3.9
2023-01-26T11:12:39.396Z,3.9
2023-01-26T11:13:46.769Z,4
2023-01-26T11:14:54.020Z,3.9
2023-01-26T11:16:04.332Z,4
2023-01-26T11:17:22.892Z,4
2023-01-26T11:18:32.023Z,4
2023-01-26T11:19:44.300Z,4
2023-01-26T11:20:58.385Z,3.7
2023-01-26T11:22:13.945Z,3.7
2023-01-26T11:23:20.857Z,3.8
2023-01-26T11:24:42.276Z,3.8
2023-01-26T11:25:48.594Z,3.8
2023-01-26T11:27:01.827Z,3.9
2023-01-26T11:28:17.686Z,3.9
2023-01-26T11:29:31.029Z,3.9
2023-01-26T11:30:46.429Z,3.9
2023-01-26T11:32:00.117Z,3.9
2023-01-26T11:33:17.049Z,3.9
2023-01-26T11:34:25.345Z,3.9
2023-01-26T11:35:43.425Z,3.9
2023-01-26T11:36:53.410Z,3.9
2023-01-26T11:38:10.946Z,3.9
2023-01-26T11:39:23.469Z,3.9
2023-01-26T11:40:39.884Z,3.9
2023-01-26T11:41:54.985Z,3.9
2023-01-26T11:43:07.129Z,3.9
2023-01-26T11:44:24.585Z,3.9
2023-01-26T11:45:31.724Z,3.9
2023-01-26T11:46:44.405Z,3.9
2023-01-26T11:47:51.450Z,3.9
2023-01-26T11:49:06.731Z,3.9
2023-01-26T11:50:19.009Z,3.8
2023-01-26T11:51:31.195Z,3.9
2023-01-26T11:52:48.925Z,3.8
2023-01-26T11:53:59.173Z,3.9
2023-01-26T11:55:18.306Z,3.9
2023-01-26T11:56:38.051Z,3.9
2023-01-26T11:57:52.485Z,3.8
2023-01-26T11:59:09.129Z,3.8
2023-01-26T12:00:29.800Z,3.8
2023-01-26T12:01:33.606Z,3.8
2023-01-26T12:02:45.700Z,3.8
2023-01-26T12:03:54.265Z,3.7
2023-01-26T12:05:05.057Z,3.8
2023-01-26T12:06:18.020Z,3.6
2023-01-26T12:07:35.653Z,3.7
2023-01-26T12:08:52.141Z,3.7
2023-01-26T12:10:08.470Z,3.8
2023-01-26T12:11:16.842Z,3.8
2023-01-26T12:12:34.169Z,3.9
2023-01-26T12:13:45.401Z,3.8
2023-01-26T12:15:04.936Z,3.8
2023-01-26T12:16:21.725Z,3.9
2023-01-26T12:17:36.720Z,3.9
2023-01-26T12:18:53.399Z,3.6
2023-01-26T12:20:01.451Z,3.8
2023-01-26T12:21:20.403Z,3.8
2023-01-26T12:22:29.892Z,3.6
2023-01-26T12:23:43.793Z,3.6
2023-01-26T12:25:28.740Z,3.7
2023-01-26T12:26:11.021Z,3.7
2023-01-26T12:27:21.609Z,3.7
2023-01-26T12:28:34.473Z,3.7
2023-01-26T12:29:42.888Z,3.7
2023-01-26T12:30:59.116Z,3.7
2023-01-26T12:32:19.130Z,3.7
2023-01-26T12:33:27.025Z,3.8
2023-01-26T12:34:36.201Z,3.8
2023-01-26T12:35:46.761Z,3.8
2023-01-26T12:37:06.473Z,3.8
2023-01-26T12:38:24.838Z,3.8
2023-01-26T12:39:40.845Z,3.8
2023-01-26T12:40:51.115Z,3.9
2023-01-26T12:42:04.013Z,4
2023-01-26T12:43:19.503Z,3.9
2023-01-26T12:44:39.665Z,3.9
2023-01-26T12:45:50.916Z,4
2023-01-26T12:47:00.105Z,4
2023-01-26T12:48:11.957Z,4
2023-01-26T12:49:24.698Z,3.8
2023-01-26T12:50:39.878Z,3.8
2023-01-26T12:51:52.104Z,3.8
2023-01-26T12:53:01.510Z,3.9
2023-01-26T12:54:17.399Z,3.9
2023-01-26T12:55:33.593Z,3.9
2023-01-26T12:56:45.874Z,3.9
2023-01-26T12:57:57.262Z,3.9
2023-01-26T12:59:07.018Z,3.9
2023-01-26T13:00:28.904Z,3.9
2023-01-26T13:01:39.853Z,3.9
2023-01-26T13:02:50.981Z,3.8
2023-01-26T13:04:01.598Z,3.9
2023-01-26T13:05:09.463Z,4
2023-01-26T13:06:31.997Z,4
2023-01-26T13:07:42.113Z,4
2023-01-26T13:08:51.578Z,4
2023-01-26T13:10:04.425Z,4.1
2023-01-26T13:11:17.189Z,4.1
2023-01-26T13:12:37.349Z,4.1
2023-01-26T13:13:52.751Z,4.1
2023-01-26T13:15:06.176Z,4.1
2023-01-26T13:16:13.961Z,3.9
2023-01-26T13:17:25.067Z,3.8
2023-01-26T13:18:34.442Z,3.9
2023-01-26T13:19:46.780Z,3.9
2023-01-26T13:20:53.969Z,3.9
2023-01-26T13:22:01.560Z,3.6
2023-01-26T13:23:08.553Z,3.3
2023-01-26T13:24:25.983Z,3.1
2023-01-26T13:25:33.135Z,3.2
2023-01-26T13:26:40.878Z,3.4
2023-01-26T13:27:50.965Z,3.4
2023-01-26T13:28:58.542Z,3.5
2023-01-26T13:30:16.310Z,3.5
2023-01-26T13:31:29.218Z,3.7
2023-01-26T13:32:36.211Z,3.8
2023-01-26T13:33:43.361Z,3.9
2023-01-26T13:34:50.414Z,3.8
2023-01-26T13:36:03.879Z,3.9
2023-01-26T13:37:21.193Z,3.9
2023-01-26T13:38:40.181Z,3.6
2023-01-26T13:39:53.996Z,3.5
2023-01-26T13:41:14.103Z,3.5
2023-01-26T13:42:28.486Z,3.4
2023-01-26T13:43:43.104Z,3.3
2023-01-26T13:44:59.059Z,3.3
2023-01-26T13:46:18.266Z,3.4
2023-01-26T13:47:30.385Z,3.6
2023-01-26T13:48:46.725Z,3.6
2023-01-26T13:50:02.293Z,3.7
2023-01-26T13:51:30.445Z,3.7
2023-01-26T13:52:45.076Z,3.5
2023-01-26T13:53:54.334Z,3.7
2023-01-26T13:55:13.544Z,3.5
2023-01-26T13:56:32.512Z,3.6
2023-01-26T13:57:51.246Z,3.7
2023-01-26T14:00:22.550Z,3.8
2023-01-26T14:01:31.762Z,3.8
2023-01-26T14:02:37.267Z,3.8
2023-01-26T14:03:44.146Z,3.9
2023-01-26T14:04:51.459Z,3.9
2023-01-26T14:05:58.394Z,3.8
2023-01-26T14:07:08.651Z,3.8
2023-01-26T14:08:15.866Z,3.8
2023-01-26T14:09:22.831Z,3.8
2023-01-26T14:10:30.061Z,3.8
2023-01-26T14:11:37.130Z,3.8
2023-01-26T14:12:44.211Z,3.8
2023-01-26T14:13:57.320Z,3.8
2023-01-26T14:15:04.530Z,3.9
2023-01-26T14:16:11.775Z,3.9
2023-01-26T14:17:24.447Z,3.9
2023-01-26T14:18:31.509Z,3.9
2023-01-26T14:19:38.763Z,3.9
2023-01-26T14:20:45.696Z,3.8
2023-01-26T14:21:52.874Z,3.7
2023-01-26T14:23:03.030Z,3.7
2023-01-26T14:24:10.183Z,3.4
2023-01-26T14:25:17.354Z,3.4
2023-01-26T14:26:24.317Z,3.4
2023-01-26T14:27:31.546Z,3.5
2023-01-26T14:28:38.583Z,3.5
2023-01-26T14:29:45.816Z,3.6
2023-01-26T14:30:53.008Z,3.5
2023-01-26T14:31:59.945Z,3.6
2023-01-26T14:33:07.097Z,3.6
2023-01-26T14:34:16.675Z,3.6
2023-01-26T14:35:23.962Z,3.5
2023-01-26T14:36:31.857Z,3.4
2023-01-26T14:37:39.122Z,3.4
2023-01-26T14:38:46.252Z,3.5
2023-01-26T14:39:54.258Z,3.6
2023-01-26T14:41:11.904Z,3.7
2023-01-26T14:42:21.917Z,3.6
2023-01-26T14:43:28.942Z,3.7
2023-01-26T14:44:36.996Z,3.7
2023-01-26T14:45:44.318Z,3.7
2023-01-26T14:46:54.537Z,3.8
2023-01-26T14:48:09.697Z,3.8
2023-01-26T14:49:16.767Z,3.8
2023-01-26T14:50:24.076Z,3.8
2023-01-26T14:51:31.201Z,3.7
2023-01-26T14:52:38.218Z,3.7
2023-01-26T14:53:45.510Z,3.7
2023-01-26T14:54:55.490Z,3.7
2023-01-26T14:56:02.696Z,3.7
2023-01-26T14:57:09.853Z,3.7
2023-01-26T14:58:17.045Z,3.7
2023-01-26T14:59:29.141Z,3.7
2023-01-26T15:00:41.353Z,3.5
2023-01-26T15:01:49.411Z,3.4
2023-01-26T15:02:56.572Z,3.3
2023-01-26T15:04:04.066Z,3.5
2023-01-26T15:05:21.601Z,3.5
2023-01-26T15:06:40.889Z,3.5
2023-01-26T15:07:48.232Z,3.5
2023-01-26T15:08:58.207Z,3.6
2023-01-26T15:10:08.386Z,3.6
2023-01-26T15:11:20.634Z,3.7
2023-01-26T15:12:32.894Z,3.6
2023-01-26T15:13:39.879Z,3.7
2023-01-26T15:14:49.628Z,3.6
2023-01-26T15:15:59.759Z,3.6
2023-01-26T15:17:09.477Z,3.5
2023-01-26T15:18:26.837Z,3.5
2023-01-26T15:19:34.013Z,3.5
2023-01-26T15:20:44.009Z,3.6
2023-01-26T15:21:56.425Z,3.6
2023-01-26T15:23:03.484Z,3.6
2023-01-26T15:24:21.544Z,3.5
2023-01-26T15:25:28.349Z,3.5
2023-01-26T15:26:35.501Z,3.5
2023-01-26T15:27:42.649Z,3.5
2023-01-26T15:28:53.650Z,3.6
2023-01-26T15:30:00.909Z,3.5
2023-01-26T15:31:09.024Z,3.5
2023-01-26T15:32:16.165Z,3.5
2023-01-26T15:33:31.796Z,3.5
2023-01-26T15:34:40.902Z,3.5
2023-01-26T15:35:48.223Z,3.4
2023-01-26T15:37:00.496Z,3.5
2023-01-26T15:38:07.988Z,3.5
2023-01-26T15:39:15.154Z,3.5
2023-01-26T15:40:22.619Z,3.5
2023-01-26T15:41:29.523Z,3.5
2023-01-26T15:42:36.759Z,3.4
2023-01-26T15:43:43.785Z,3.3
2023-01-26T15:44:50.848Z,3.4
2023-01-26T15:45:58.238Z,3.4
2023-01-26T15:47:06.113Z,3.3
2023-01-26T15:48:14.249Z,3.4
2023-01-26T15:49:21.501Z,3.4
2023-01-26T15:50:28.626Z,3.4
2023-01-26T15:51:36.589Z,3.4
2023-01-26T15:52:44.577Z,3.4
2023-01-26T15:53:51.550Z,3.4
2023-01-26T15:54:58.532Z,3.4
2023-01-26T15:56:05.645Z,3.4
2023-01-26T15:57:16.393Z,3.4